Time;durP1;ratioP1;P1;durP2;ratioP2;P2;SDS_P1;SDS_P2;PMS_P1;PMS_P2;Temp;Humidity;BMP_temperature;BMP_pressure;BME280_temperature;BME280_humidity;BME280_pressure;Samples;Min_cycle;Max_cycle;Signal;HPM_P1;HPM_P2
2021/06/22 00:01:00;;;;;;;1.50;1.40;;;19.60;98.00;;;;;;5070529;28;20457;-72
2021/06/22 00:03:28;;;;;;;2.10;1.47;;;19.50;98.00;;;;;;5068297;28;20510;-72
2021/06/22 00:05:55;;;;;;;3.47;1.40;;;19.50;98.00;;;;;;5069381;28;20500;-72
2021/06/22 00:08:23;;;;;;;1.80;1.63;;;19.50;98.00;;;;;;5068217;28;20528;-72
2021/06/22 00:10:50;;;;;;;1.90;1.43;;;19.30;98.00;;;;;;5070606;28;20454;-72
2021/06/22 00:13:17;;;;;;;1.50;1.33;;;19.10;98.00;;;;;;5067442;28;20508;-72
2021/06/22 00:15:44;;;;;;;3.30;1.93;;;19.20;98.00;;;;;;5070504;28;20922;-72
2021/06/22 00:18:12;;;;;;;1.30;1.27;;;19.40;98.00;;;;;;5067805;28;20534;-72
2021/06/22 00:20:40;;;;;;;1.60;1.40;;;19.40;98.00;;;;;;5070325;28;20545;-72
2021/06/22 00:23:07;;;;;;;1.90;1.70;;;19.40;98.00;;;;;;5068015;28;20495;-72
2021/06/22 00:25:34;;;;;;;3.73;1.93;;;19.30;98.00;;;;;;5070395;28;20512;-72
2021/06/22 00:28:01;;;;;;;1.90;1.47;;;19.40;98.00;;;;;;5067876;28;20476;-72
2021/06/22 00:30:28;;;;;;;1.80;1.50;;;19.40;98.00;;;;;;5070345;28;20489;-72
2021/06/22 00:32:55;;;;;;;1.40;1.40;;;19.30;98.00;;;;;;5067997;28;20500;-72
2021/06/22 00:35:23;;;;;;;4.30;1.97;;;19.30;98.00;;;;;;5070169;28;20548;-72
2021/06/22 00:37:51;;;;;;;1.73;1.50;;;19.40;98.00;;;;;;5067756;28;20461;-72
2021/06/22 00:40:18;;;;;;;1.40;1.30;;;19.50;98.00;;;;;;5068998;28;20530;-72
2021/06/22 00:42:47;;;;;;;1.47;1.30;;;19.40;98.00;;;;;;5067739;28;20449;-72
2021/06/22 00:45:16;;;;;;;1.53;1.47;;;19.40;98.00;;;;;;5069072;28;20484;-73
2021/06/22 00:47:44;;;;;;;1.97;1.53;;;19.40;98.00;;;;;;5067587;28;20548;-72
2021/06/22 00:50:12;;;;;;;1.60;1.33;;;19.50;98.00;;;;;;5068910;28;20888;-73
2021/06/22 00:52:39;;;;;;;1.20;1.20;;;19.60;98.00;;;;;;5067615;28;20482;-73
2021/06/22 00:55:12;;;;;;;1.20;1.17;;;19.60;98.00;;;;;;5070254;28;20871;-72
2021/06/22 00:57:40;;;;;;;1.40;1.30;;;19.60;98.00;;;;;;5066721;28;20647;-72
2021/06/22 01:00:09;;;;;;;2.07;1.30;;;19.60;98.00;;;;;;5070074;28;20563;-72
2021/06/22 01:02:36;;;;;;;2.23;1.40;;;19.50;98.00;;;;;;5069108;28;20460;-72
2021/06/22 01:05:04;;;;;;;1.90;1.47;;;19.50;98.00;;;;;;5074137;28;20878;-73
2021/06/22 01:07:31;;;;;;;1.70;1.33;;;19.50;98.00;;;;;;5071212;28;21016;-72
2021/06/22 01:09:58;;;;;;;1.80;1.67;;;19.40;98.00;;;;;;5073882;28;20890;-72
2021/06/22 01:12:27;;;;;;;3.23;1.50;;;19.40;98.00;;;;;;5069839;28;20460;-73
2021/06/22 01:14:54;;;;;;;1.33;1.30;;;19.40;98.00;;;;;;5073590;28;20514;-73
2021/06/22 01:17:21;;;;;;;1.93;1.57;;;19.40;98.00;;;;;;5071105;28;20803;-72
2021/06/22 01:19:48;;;;;;;2.20;1.43;;;19.30;98.00;;;;;;5073412;28;20516;-73
2021/06/22 01:22:16;;;;;;;2.30;2.00;;;19.20;98.00;;;;;;5072981;28;20942;-72
2021/06/22 01:24:43;;;;;;;2.60;1.60;;;19.10;98.00;;;;;;5072967;28;21016;-72
2021/06/22 01:27:11;;;;;;;1.50;1.10;;;19.00;98.00;;;;;;5073362;28;20522;-72
2021/06/22 01:29:38;;;;;;;1.33;1.33;;;19.00;98.00;;;;;;5070704;28;20468;-72
2021/06/22 01:32:08;;;;;;;2.63;1.67;;;19.20;98.00;;;;;;5073073;28;20503;-72
2021/06/22 01:34:35;;;;;;;1.83;1.60;;;19.30;98.00;;;;;;5070257;28;20906;-72
2021/06/22 01:37:02;;;;;;;1.40;1.33;;;19.30;98.00;;;;;;5073089;28;20535;-72
2021/06/22 01:39:30;;;;;;;1.43;1.33;;;19.40;98.00;;;;;;5070654;28;20483;-72
2021/06/22 01:41:58;;;;;;;1.40;1.30;;;19.40;98.00;;;;;;5071879;28;20460;-72
2021/06/22 01:44:29;;;;;;;2.27;1.60;;;19.40;98.00;;;;;;5070595;28;20538;-72
2021/06/22 01:46:56;;;;;;;1.33;1.30;;;19.50;98.00;;;;;;5073182;28;20522;-73
2021/06/22 01:49:24;;;;;;;1.60;1.30;;;19.50;98.00;;;;;;5070571;28;20946;-72
2021/06/22 01:51:51;;;;;;;1.30;1.10;;;19.30;98.00;;;;;;5072885;28;20475;-73
2021/06/22 01:54:18;;;;;;;1.40;1.20;;;19.20;98.00;;;;;;5070323;28;20457;-72
2021/06/22 01:56:49;;;;;;;2.50;1.70;;;19.30;98.00;;;;;;5072774;28;20486;-72
2021/06/22 01:59:16;;;;;;;1.50;1.50;;;19.20;98.00;;;;;;5070281;28;20470;-72
2021/06/22 02:01:44;;;;;;;4.60;1.40;;;19.20;98.00;;;;;;5072619;28;20465;-72
2021/06/22 02:04:12;;;;;;;2.40;1.47;;;19.20;98.00;;;;;;5070074;28;20460;-72
2021/06/22 02:06:39;;;;;;;1.20;1.13;;;19.00;98.00;;;;;;5071361;28;20480;-72
2021/06/22 02:09:07;;;;;;;1.50;1.37;;;18.90;98.00;;;;;;5069901;28;20457;-72
2021/06/22 02:11:34;;;;;;;1.70;1.60;;;18.80;98.00;;;;;;5071318;28;20448;-72
2021/06/22 02:14:05;;;;;;;3.20;1.73;;;18.80;98.00;;;;;;5067728;28;20813;-72
2021/06/22 02:16:33;;;;;;;1.50;1.20;;;18.80;98.00;;;;;;5072550;28;20456;-72
2021/06/22 02:19:01;;;;;;;1.60;1.50;;;18.70;98.00;;;;;;5069754;28;20452;-72
2021/06/22 02:21:28;;;;;;;2.90;1.50;;;18.70;98.00;;;;;;5072415;28;20517;-72
2021/06/22 02:23:56;;;;;;;2.30;1.33;;;18.70;98.00;;;;;;5069946;28;20515;-72
2021/06/22 02:26:23;;;;;;;3.47;1.40;;;18.70;98.00;;;;;;5072077;28;20540;-72
2021/06/22 02:28:52;;;;;;;1.40;1.30;;;18.80;98.00;;;;;;5068591;28;20889;-72
2021/06/22 02:31:20;;;;;;;2.43;1.90;;;18.80;98.00;;;;;;5071127;28;20539;-72
2021/06/22 02:33:47;;;;;;;1.77;1.60;;;18.80;98.00;;;;;;5069585;28;20483;-72
2021/06/22 02:36:14;;;;;;;1.20;1.10;;;18.90;98.00;;;;;;5070645;28;20469;-72
2021/06/22 02:38:42;;;;;;;1.97;1.40;;;19.10;98.00;;;;;;5070292;28;20467;-72
2021/06/22 02:41:09;;;;;;;1.30;1.20;;;19.10;98.00;;;;;;5072965;28;20497;-72
2021/06/22 02:43:36;;;;;;;1.60;1.47;;;19.20;98.00;;;;;;5068607;28;20491;-72
2021/06/22 02:46:03;;;;;;;1.70;1.50;;;19.10;98.00;;;;;;5072050;28;20524;-73
2021/06/22 02:48:32;;;;;;;1.70;1.50;;;19.10;98.00;;;;;;5070198;28;20453;-72
2021/06/22 02:51:00;;;;;;;3.13;1.73;;;19.10;98.00;;;;;;5072567;28;20900;-72
2021/06/22 02:53:29;;;;;;;1.67;1.53;;;19.10;98.00;;;;;;5069281;28;20556;-72
2021/06/22 02:55:56;;;;;;;1.90;1.57;;;19.00;98.00;;;;;;5071824;28;20500;-72
2021/06/22 02:58:25;;;;;;;1.50;1.40;;;19.00;98.00;;;;;;5067772;28;20487;-72
2021/06/22 03:00:52;;;;;;;1.40;1.30;;;19.10;98.00;;;;;;5071378;28;20480;-72
2021/06/22 03:03:19;;;;;;;2.10;1.77;;;19.10;98.00;;;;;;5068911;28;20499;-72
2021/06/22 03:05:47;;;;;;;1.50;1.40;;;19.20;98.00;;;;;;5071423;28;20871;-72
2021/06/22 03:08:16;;;;;;;2.27;1.90;;;19.10;98.00;;;;;;5068864;28;20526;-72
2021/06/22 03:10:43;;;;;;;1.73;1.50;;;19.00;98.00;;;;;;5070133;28;20465;-72
2021/06/22 03:13:11;;;;;;;3.77;1.37;;;18.90;98.00;;;;;;5068719;28;20552;-71
2021/06/22 03:15:38;;;;;;;1.80;1.63;;;18.80;98.00;;;;;;5071249;28;20481;-72
2021/06/22 03:18:14;;;;;;;1.87;1.60;;;18.70;98.00;;;;;;5068516;28;20971;-72
2021/06/22 03:20:41;;;;;;;1.53;1.37;;;18.60;98.00;;;;;;5071071;28;20491;-72
2021/06/22 03:23:10;;;;;;;2.33;1.60;;;18.50;98.00;;;;;;5068595;28;20461;-72
2021/06/22 03:25:37;;;;;;;3.37;1.30;;;18.50;98.00;;;;;;5069698;28;20812;-72
2021/06/22 03:28:05;;;;;;;1.30;1.20;;;18.60;98.00;;;;;;5068333;28;20453;-72
2021/06/22 03:30:32;;;;;;;2.00;1.40;;;18.60;98.00;;;;;;5070947;28;20804;-72
2021/06/22 03:32:59;;;;;;;1.37;1.33;;;18.80;98.00;;;;;;5068620;28;20464;-73
2021/06/22 03:35:29;;;;;;;1.57;1.47;;;18.90;98.00;;;;;;5070847;28;20468;-72
2021/06/22 03:37:56;;;;;;;2.80;1.53;;;18.90;98.00;;;;;;5068694;28;20547;-72
2021/06/22 03:40:25;;;;;;;1.70;1.37;;;19.00;98.00;;;;;;5070756;28;20781;-72
2021/06/22 03:42:52;;;;;;;1.57;1.40;;;18.90;98.00;;;;;;5068325;28;20465;-72
2021/06/22 03:45:19;;;;;;;1.30;1.20;;;18.80;98.00;;;;;;5070342;28;20854;-72
2021/06/22 03:47:46;;;;;;;1.67;1.57;;;18.90;98.00;;;;;;5068345;28;20449;-73
2021/06/22 03:50:14;;;;;;;1.20;1.20;;;19.00;98.00;;;;;;5070926;28;20461;-72
2021/06/22 03:52:41;;;;;;;2.77;1.73;;;19.00;98.00;;;;;;5067278;28;20514;-72
2021/06/22 03:57:53;;;;;;;1.53;1.33;;;19.10;98.00;;;;;;5068023;28;20811;-72
2021/06/22 04:00:21;;;;;;;2.13;1.40;;;19.00;98.00;;;;;;5069373;28;20485;-72
2021/06/22 04:02:49;;;;;;;1.50;1.47;;;19.10;98.00;;;;;;5068172;28;21089;-72
2021/06/22 04:05:16;;;;;;;1.50;1.43;;;19.10;98.00;;;;;;5070671;28;20952;-72
2021/06/22 04:07:43;;;;;;;2.43;1.63;;;19.00;98.00;;;;;;5066768;28;20521;-72
2021/06/22 04:10:11;;;;;;;1.87;1.20;;;19.20;98.00;;;;;;5070687;28;20510;-73
2021/06/22 04:12:39;;;;;;;2.47;1.30;;;19.10;98.00;;;;;;5068057;28;20456;-72
2021/06/22 04:15:08;;;;;;;1.60;1.30;;;19.10;98.00;;;;;;5069318;28;20635;-72
2021/06/22 04:17:35;;;;;;;2.60;1.40;;;19.00;98.00;;;;;;5068737;28;20547;-73
2021/06/22 04:20:03;;;;;;;1.97;1.20;;;18.90;98.00;;;;;;5069245;28;20551;-72
2021/06/22 04:22:30;;;;;;;1.77;1.73;;;19.10;98.00;;;;;;5069160;28;20508;-72
2021/06/22 04:24:57;;;;;;;1.77;1.50;;;19.10;98.00;;;;;;5067914;28;20543;-72
2021/06/22 04:27:27;;;;;;;2.13;1.70;;;19.20;98.00;;;;;;5070288;28;20464;-72
2021/06/22 04:29:54;;;;;;;1.80;1.37;;;19.30;98.00;;;;;;5067911;28;20500;-72
2021/06/22 04:32:23;;;;;;;1.50;1.30;;;19.30;98.00;;;;;;5070359;28;20514;-72
2021/06/22 04:34:51;;;;;;;1.30;1.30;;;19.40;98.00;;;;;;5068002;28;20534;-72
2021/06/22 04:37:19;;;;;;;2.13;1.40;;;19.40;98.00;;;;;;5053704;28;20491;-72
2021/06/22 04:39:46;;;;;;;1.80;1.60;;;19.60;98.00;;;;;;5071793;28;20461;-72
2021/06/22 04:42:13;;;;;;;1.70;1.27;;;19.50;98.00;;;;;;5073952;28;20451;-72
2021/06/22 04:44:40;;;;;;;2.23;1.43;;;19.50;98.00;;;;;;5070074;28;20990;-72
2021/06/22 04:47:07;;;;;;;1.60;1.13;;;19.60;98.00;;;;;;5074103;28;20533;-72
2021/06/22 04:49:35;;;;;;;1.63;1.40;;;19.70;98.00;;;;;;5071529;28;20967;-72
2021/06/22 04:52:02;;;;;;;1.70;1.30;;;19.60;98.00;;;;;;5073973;28;20452;-72
2021/06/22 04:54:29;;;;;;;2.03;1.37;;;19.60;98.00;;;;;;5071281;28;21013;-72
2021/06/22 04:56:56;;;;;;;1.60;1.43;;;19.60;98.00;;;;;;5072593;28;20457;-72
2021/06/22 04:59:24;;;;;;;1.40;1.13;;;19.70;98.00;;;;;;5070318;28;20497;-71
2021/06/22 05:01:51;;;;;;;1.70;1.50;;;19.70;98.00;;;;;;5073667;28;20492;-72
2021/06/22 05:04:18;;;;;;;2.17;1.70;;;19.60;98.00;;;;;;5071695;28;20491;-72
2021/06/22 05:06:47;;;;;;;1.50;1.20;;;19.60;98.00;;;;;;5073764;28;20507;-72
2021/06/22 05:09:14;;;;;;;2.23;1.53;;;19.70;98.00;;;;;;5070209;28;20495;-71
2021/06/22 05:11:41;;;;;;;1.40;1.40;;;19.70;98.00;;;;;;5073588;28;20461;-72
2021/06/22 05:14:08;;;;;;;1.80;1.70;;;19.70;98.00;;;;;;5069813;28;20505;-72
2021/06/22 05:16:35;;;;;;;1.63;1.57;;;19.70;98.00;;;;;;5072417;28;20456;-72
2021/06/22 05:19:01;;;;;;;1.63;1.20;;;19.70;98.00;;;;;;5071057;28;21032;-72
2021/06/22 05:21:28;;;;;;;1.63;1.40;;;19.70;98.00;;;;;;5073434;28;20538;-73
2021/06/22 05:23:57;;;;;;;1.90;1.43;;;19.70;98.00;;;;;;5070758;28;20947;-72
2021/06/22 05:26:24;;;;;;;2.40;1.60;;;19.70;98.00;;;;;;5073535;28;20484;-72
2021/06/22 05:28:51;;;;;;;1.27;1.27;;;19.70;98.00;;;;;;5070676;28;20477;-72
2021/06/22 05:31:18;;;;;;;1.20;1.10;;;19.70;98.00;;;;;;5073209;28;20591;-72
2021/06/22 05:33:45;;;;;;;1.70;1.47;;;19.60;98.00;;;;;;5070530;28;20453;-73
2021/06/22 05:36:12;;;;;;;2.43;1.60;;;19.50;98.00;;;;;;5073185;28;20523;-71
2021/06/22 05:38:40;;;;;;;2.00;1.53;;;19.50;98.00;;;;;;5070567;28;20463;-72
2021/06/22 05:41:08;;;;;;;1.40;1.40;;;19.70;98.00;;;;;;5073050;28;20836;-72
2021/06/22 05:43:35;;;;;;;2.17;1.70;;;19.70;98.00;;;;;;5070258;28;20537;-73
2021/06/22 05:46:03;;;;;;;4.80;1.50;;;19.70;98.00;;;;;;5072916;28;20457;-73
2021/06/22 05:48:29;;;;;;;2.03;1.40;;;19.70;98.00;;;;;;5069030;28;20461;-72
2021/06/22 05:50:57;;;;;;;1.50;1.40;;;19.80;98.00;;;;;;5072393;28;20879;-72
2021/06/22 05:53:24;;;;;;;1.23;1.23;;;19.90;98.00;;;;;;5070042;28;20740;-71
2021/06/22 05:55:51;;;;;;;1.70;1.40;;;19.80;98.00;;;;;;5072818;28;20456;-71
2021/06/22 05:58:19;;;;;;;1.20;1.10;;;19.90;98.00;;;;;;5068810;28;20510;-71
2021/06/22 06:00:46;;;;;;;1.20;1.10;;;20.00;98.00;;;;;;5072585;28;20482;-71
2021/06/22 06:03:13;;;;;;;1.97;1.40;;;20.30;98.00;;;;;;5069976;28;20492;-71
2021/06/22 06:05:41;;;;;;;1.20;1.20;;;20.40;98.00;;;;;;5072921;28;20456;-71
2021/06/22 06:08:08;;;;;;;1.70;1.40;;;20.60;98.00;;;;;;5070002;28;20465;-72
2021/06/22 06:10:35;;;;;;;1.43;1.40;;;20.70;98.00;;;;;;5072733;28;20596;-70
2021/06/22 06:13:02;;;;;;;3.37;1.60;;;20.80;98.00;;;;;;5069949;28;20530;-71
2021/06/22 06:15:31;;;;;;;3.10;1.50;;;20.90;98.00;;;;;;5072683;28;20453;-71
2021/06/22 06:17:58;;;;;;;1.30;1.30;;;20.90;98.00;;;;;;5068652;28;20465;-72
2021/06/22 06:20:27;;;;;;;1.93;1.50;;;20.80;98.00;;;;;;5072483;28;21003;-71
2021/06/22 06:23:07;;;;;;;2.40;1.47;;;20.90;98.00;;;;;;5069988;28;20825;-71
2021/06/22 06:25:34;;;;;;;2.90;1.60;;;21.00;98.00;;;;;;5070606;28;20523;-71
2021/06/22 06:28:04;;;;;;;1.63;1.40;;;21.00;98.00;;;;;;5069363;28;20525;-71
2021/06/22 06:30:35;;;;;;;1.83;1.73;;;20.80;98.00;;;;;;5070239;28;20527;-71
2021/06/22 06:33:03;;;;;;;2.07;1.43;;;20.90;98.00;;;;;;5069215;28;20529;-70
2021/06/22 06:35:30;;;;;;;1.30;1.20;;;20.70;98.00;;;;;;5070102;28;20465;-70
2021/06/22 06:37:57;;;;;;;1.50;1.40;;;20.90;98.00;;;;;;5068376;28;20452;-69
2021/06/22 06:40:25;;;;;;;1.87;1.40;;;21.10;98.00;;;;;;5071141;28;20461;-70
2021/06/22 06:42:52;;;;;;;1.87;1.57;;;21.10;98.00;;;;;;5068742;28;20453;-72
2021/06/22 06:45:21;;;;;;;1.50;1.30;;;21.00;98.00;;;;;;5071032;28;20958;-73
2021/06/22 06:47:50;;;;;;;1.70;1.23;;;21.00;98.00;;;;;;5070315;28;20800;-74
2021/06/22 06:50:17;;;;;;;1.93;1.30;;;21.10;98.00;;;;;;5071045;28;20483;-73
2021/06/22 06:52:45;;;;;;;2.17;1.60;;;21.00;98.00;;;;;;5071120;28;20483;-72
2021/06/22 06:55:26;;;;;;;2.23;1.40;;;21.00;98.00;;;;;;5068498;28;20453;-72
2021/06/22 06:57:54;;;;;;;2.10;1.30;;;21.20;98.00;;;;;;5068697;28;20469;-72
2021/06/22 07:00:23;;;;;;;1.30;1.30;;;21.50;98.00;;;;;;5070425;28;20500;-73
2021/06/22 07:02:52;;;;;;;1.50;1.40;;;21.60;98.00;;;;;;5068091;28;21039;-72
2021/06/22 07:05:22;;;;;;;1.40;1.33;;;21.80;98.00;;;;;;5070539;28;20460;-71
2021/06/22 07:07:49;;;;;;;1.77;1.60;;;21.90;98.00;;;;;;5070257;28;20558;-73
2021/06/22 07:10:17;;;;;;;1.30;1.30;;;21.70;98.00;;;;;;5069868;28;20457;-73
2021/06/22 07:12:45;;;;;;;1.47;1.40;;;21.70;98.00;;;;;;5070676;28;20493;-75
2021/06/22 07:15:14;;;;;;;1.60;1.50;;;21.80;98.00;;;;;;5067730;28;20456;-73
2021/06/22 07:17:41;;;;;;;2.70;1.70;;;21.90;98.00;;;;;;5070208;28;20551;-72
2021/06/22 07:20:11;;;;;;;1.30;1.20;;;21.90;98.00;;;;;;5068330;28;20535;-74
2021/06/22 07:22:39;;;;;;;2.63;1.67;;;22.10;98.00;;;;;;5070792;28;20489;-74
2021/06/22 07:25:07;;;;;;;2.10;1.63;;;22.30;98.00;;;;;;5067362;28;20469;-72
2021/06/22 07:27:33;;;;;;;1.87;1.60;;;22.50;98.00;;;;;;5069641;28;20723;-72
2021/06/22 07:30:00;;;;;;;1.97;1.70;;;22.30;98.00;;;;;;5066723;28;20503;-71
2021/06/22 07:32:27;;;;;;;1.20;1.20;;;22.20;98.00;;;;;;5070781;28;20477;-71
2021/06/22 07:34:54;;;;;;;2.33;1.60;;;22.10;98.00;;;;;;5067502;28;20484;-72
2021/06/22 07:37:23;;;;;;;1.30;1.27;;;22.30;98.00;;;;;;5069707;28;20453;-73
2021/06/22 07:39:50;;;;;;;5.50;1.70;;;22.40;98.00;;;;;;5068576;28;20465;-71
2021/06/22 07:42:17;;;;;;;1.63;1.60;;;22.30;98.00;;;;;;5069607;28;20566;-70
2021/06/22 07:44:43;;;;;;;1.80;1.63;;;22.30;98.00;;;;;;5068543;28;20445;-71
2021/06/22 07:47:10;;;;;;;1.80;1.60;;;22.30;98.00;;;;;;5071022;28;20480;-70
2021/06/22 07:49:38;;;;;;;1.63;1.40;;;22.20;98.00;;;;;;5068572;28;20453;-71
2021/06/22 07:52:06;;;;;;;1.43;1.43;;;22.00;98.00;;;;;;5070083;28;20510;-71
2021/06/22 07:54:34;;;;;;;2.10;1.43;;;22.00;98.00;;;;;;5068896;28;20449;-70
2021/06/22 07:57:01;;;;;;;1.40;1.30;;;21.90;98.00;;;;;;5071171;28;20456;-69
2021/06/22 07:59:28;;;;;;;1.40;1.20;;;21.80;98.00;;;;;;5068295;28;20453;-70
2021/06/22 08:01:56;;;;;;;1.63;1.57;;;21.80;98.00;;;;;;5070029;28;20508;-71
2021/06/22 08:04:23;;;;;;;1.33;1.27;;;21.70;98.00;;;;;;5068488;28;20495;-71
2021/06/22 08:06:52;;;;;;;1.97;1.60;;;21.60;98.00;;;;;;5071321;28;20506;-70
2021/06/22 08:09:19;;;;;;;2.50;1.53;;;21.50;98.00;;;;;;5068533;28;20483;-70
2021/06/22 08:11:48;;;;;;;2.67;1.63;;;21.60;98.00;;;;;;5069923;28;20468;-70
2021/06/22 08:14:15;;;;;;;1.20;1.10;;;21.60;98.00;;;;;;5072612;28;20457;-70
2021/06/22 08:16:42;;;;;;;1.40;1.30;;;21.50;98.00;;;;;;5075407;28;20457;-70
2021/06/22 08:19:09;;;;;;;1.20;1.17;;;21.50;98.00;;;;;;5071479;28;20955;-70
2021/06/22 08:21:37;;;;;;;1.63;1.53;;;21.60;98.00;;;;;;5075272;28;20488;-70
2021/06/22 08:24:05;;;;;;;1.63;1.53;;;21.60;98.00;;;;;;5072531;28;20487;-70
2021/06/22 08:26:32;;;;;;;1.47;1.30;;;21.50;98.00;;;;;;5075414;28;20811;-71
2021/06/22 08:29:01;;;;;;;2.30;1.47;;;21.50;98.00;;;;;;5072237;28;21044;-70
2021/06/22 08:31:28;;;;;;;1.60;1.37;;;21.50;98.00;;;;;;5075256;28;20457;-70
2021/06/22 08:33:55;;;;;;;1.80;1.60;;;21.50;98.00;;;;;;5072199;28;20510;-71
2021/06/22 08:36:22;;;;;;;2.20;1.50;;;21.50;98.00;;;;;;5075132;28;20488;-71
2021/06/22 08:38:49;;;;;;;1.80;1.40;;;21.40;98.00;;;;;;5072787;28;20484;-70
2021/06/22 08:41:17;;;;;;;1.60;1.60;;;21.50;98.00;;;;;;5073789;28;20560;-70
2021/06/22 08:43:45;;;;;;;1.33;1.27;;;21.40;98.00;;;;;;5072364;28;20492;-70
2021/06/22 08:46:13;;;;;;;1.63;1.50;;;21.30;98.00;;;;;;5075025;28;20534;-70
2021/06/22 08:48:40;;;;;;;2.67;1.60;;;21.10;98.00;;;;;;5071975;28;20455;-70
2021/06/22 08:51:08;;;;;;;1.50;1.40;;;21.20;98.00;;;;;;5073558;28;20886;-70
2021/06/22 08:53:36;;;;;;;1.23;1.20;;;21.40;98.00;;;;;;5072022;28;20452;-70
2021/06/22 08:56:03;;;;;;;3.40;1.80;;;21.50;98.00;;;;;;5074532;28;20518;-70
2021/06/22 08:58:30;;;;;;;2.77;2.00;;;21.60;98.00;;;;;;5070525;28;20522;-70
2021/06/22 09:00:57;;;;;;;1.83;1.57;;;21.50;98.00;;;;;;5074564;28;20479;-70
2021/06/22 09:03:27;;;;;;;1.90;1.80;;;21.50;98.00;;;;;;5071714;28;20833;-70
2021/06/22 09:05:55;;;;;;;3.70;2.27;;;21.40;98.00;;;;;;5074610;28;20491;-70
2021/06/22 09:08:25;;;;;;;1.77;1.40;;;21.40;98.00;;;;;;5071376;28;20479;-70
2021/06/22 09:10:55;;;;;;;1.80;1.70;;;21.40;98.00;;;;;;5074480;28;20449;-70
2021/06/22 09:13:25;;;;;;;2.20;1.70;;;21.40;98.00;;;;;;5071727;28;21271;-70
2021/06/22 09:15:54;;;;;;;1.30;1.30;;;21.40;98.00;;;;;;5074586;28;21016;-71
2021/06/22 09:18:30;;;;;;;4.30;2.00;;;21.60;98.00;;;;;;5071690;28;20495;-70
2021/06/22 09:20:59;;;;;;;1.97;1.60;;;21.60;98.00;;;;;;5074523;28;20464;-70
2021/06/22 09:23:28;;;;;;;1.60;1.50;;;21.80;98.00;;;;;;5070959;28;20531;-70
2021/06/22 09:25:56;;;;;;;2.20;1.60;;;22.00;98.00;;;;;;5074365;28;20522;-70
2021/06/22 09:28:26;;;;;;;2.30;1.50;;;22.20;98.00;;;;;;5070005;28;20537;-70
2021/06/22 09:30:56;;;;;;;1.60;1.53;;;22.20;98.00;;;;;;5074161;28;20461;-71
2021/06/22 09:33:33;;;;;;;1.43;1.27;;;22.40;98.00;;;;;;5070953;28;20457;-70
2021/06/22 09:36:06;;;;;;;2.37;1.60;;;22.50;98.00;;;;;;5073969;28;20452;-71
2021/06/22 09:38:36;;;;;;;2.10;1.70;;;22.80;98.00;;;;;;5071135;28;20453;-70
2021/06/22 09:41:09;;;;;;;1.60;1.20;;;22.90;98.00;;;;;;5073809;28;20530;-71
2021/06/22 09:43:37;;;;;;;2.60;1.63;;;22.90;98.00;;;;;;5070864;28;20997;-71
2021/06/22 09:46:08;;;;;;;2.03;1.60;;;22.80;98.00;;;;;;5073737;28;20526;-71
2021/06/22 09:48:56;;;;;;;1.87;1.30;;;22.40;98.00;;;;;;5069619;28;20512;-71
2021/06/22 09:51:31;;;;;;;1.97;1.67;;;22.30;98.00;;;;;;5073522;28;20453;-71
2021/06/22 09:54:13;;;;;;;1.60;1.50;;;22.40;98.00;;;;;;5070085;28;21048;-70
2021/06/22 09:57:01;;;;;;;1.60;1.33;;;22.40;98.00;;;;;;5073282;28;20452;-71
2021/06/22 09:59:30;;;;;;;2.10;1.50;;;22.30;98.00;;;;;;5071368;28;20465;-71
2021/06/22 10:02:10;;;;;;;1.33;1.23;;;22.30;98.00;;;;;;5073638;28;20489;-70
2021/06/22 10:04:42;;;;;;;1.40;1.30;;;22.40;98.00;;;;;;5070952;28;20989;-71
2021/06/22 10:07:11;;;;;;;1.80;1.70;;;22.30;98.00;;;;;;5073618;28;20461;-71
2021/06/22 10:09:39;;;;;;;1.70;1.63;;;22.30;98.00;;;;;;5070708;28;20456;-71
2021/06/22 10:12:08;;;;;;;2.10;1.37;;;22.40;98.00;;;;;;5073253;28;20614;-70
2021/06/22 10:14:37;;;;;;;2.27;1.73;;;22.30;98.00;;;;;;5070778;28;20493;-71
2021/06/22 10:17:06;;;;;;;1.60;1.50;;;22.30;98.00;;;;;;5073489;28;20523;-71
2021/06/22 10:19:35;;;;;;;2.53;1.50;;;22.30;98.00;;;;;;5069386;28;20899;-70
2021/06/22 10:22:06;;;;;;;2.00;1.60;;;22.30;98.00;;;;;;5073067;28;20523;-72
2021/06/22 10:24:38;;;;;;;1.97;1.70;;;22.30;98.00;;;;;;5070528;28;20464;-71
2021/06/22 10:27:06;;;;;;;1.30;1.20;;;22.30;98.00;;;;;;5072969;28;20480;-71
2021/06/22 10:29:33;;;;;;;1.80;1.40;;;22.40;98.00;;;;;;5070161;28;21024;-71
2021/06/22 10:32:01;;;;;;;1.70;1.60;;;22.40;98.00;;;;;;5072769;28;20514;-71
2021/06/22 10:34:28;;;;;;;2.17;1.60;;;22.40;98.00;;;;;;5070039;28;20492;-71
2021/06/22 10:37:00;;;;;;;2.80;1.50;;;22.50;98.00;;;;;;5071008;28;20460;-71
2021/06/22 10:39:33;;;;;;;1.90;1.77;;;22.70;98.00;;;;;;5068833;28;20457;-71
2021/06/22 10:42:09;;;;;;;1.60;1.53;;;22.90;98.00;;;;;;5072540;28;20457;-70
2021/06/22 10:44:48;;;;;;;2.20;1.57;;;22.90;98.00;;;;;;5068736;28;20491;-71
2021/06/22 10:47:37;;;;;;;2.10;1.77;;;22.50;98.00;;;;;;5072422;28;20958;-71
2021/06/22 10:50:11;;;;;;;1.47;1.43;;;22.20;98.00;;;;;;5070221;28;21001;-70
2021/06/22 10:53:06;;;;;;;1.93;1.57;;;22.10;98.00;;;;;;5071352;28;20459;-71
2021/06/22 10:55:59;;;;;;;3.50;1.77;;;21.90;98.00;;;;;;5070210;28;20449;-71
2021/06/22 10:58:26;;;;;;;1.30;1.30;;;22.00;98.00;;;;;;5065991;28;20541;-71
2021/06/22 11:01:18;;;;;;;1.57;1.47;;;22.10;98.00;;;;;;5071669;28;20461;-71
2021/06/22 11:03:45;;;;;;;2.60;1.70;;;22.20;98.00;;;;;;5069034;28;20488;-71
2021/06/22 11:06:27;;;;;;;2.40;1.63;;;22.20;98.00;;;;;;5071555;28;20460;-71
2021/06/22 11:08:54;;;;;;;1.30;1.17;;;22.30;98.00;;;;;;5069200;28;20682;-71
2021/06/22 11:11:25;;;;;;;1.20;1.20;;;22.30;98.00;;;;;;5071719;28;20515;-71
2021/06/22 11:13:55;;;;;;;1.90;1.57;;;22.50;98.00;;;;;;5069644;28;20887;-71
2021/06/22 11:16:29;;;;;;;1.90;1.57;;;22.80;98.00;;;;;;5071565;28;20463;-70
2021/06/22 11:19:03;;;;;;;1.50;1.40;;;23.10;98.00;;;;;;5067485;28;20492;-73
2021/06/22 11:21:34;;;;;;;1.70;1.53;;;23.20;98.00;;;;;;5071850;28;20460;-71
2021/06/22 11:24:05;;;;;;;1.40;1.17;;;23.10;98.00;;;;;;5069106;28;20868;-71
2021/06/22 11:27:06;;;;;;;1.30;1.20;;;22.90;98.00;;;;;;5072035;28;20544;-71
2021/06/22 11:29:53;;;;;;;1.40;1.20;;;23.00;98.00;;;;;;5068332;28;20543;-71
2021/06/22 11:32:36;;;;;;;1.93;1.80;;;23.10;98.00;;;;;;5071829;28;20881;-71
2021/06/22 11:35:13;;;;;;;1.60;1.50;;;23.20;98.00;;;;;;5069658;28;20464;-71
2021/06/22 11:37:42;;;;;;;2.43;1.47;;;23.10;98.00;;;;;;5071460;28;20491;-71
2021/06/22 11:40:12;;;;;;;1.67;1.67;;;22.70;98.00;;;;;;5069314;28;20453;-71
2021/06/22 11:43:05;;;;;;;1.50;1.43;;;22.40;98.00;;;;;;5071437;28;20521;-72
2021/06/22 11:45:33;;;;;;;1.83;1.33;;;22.30;98.00;;;;;;5067917;28;20453;-71
2021/06/22 11:48:03;;;;;;;1.97;1.73;;;22.40;98.00;;;;;;5071594;28;20465;-71
2021/06/22 11:50:47;;;;;;;1.70;1.53;;;22.20;98.00;;;;;;5068233;28;20562;-71
2021/06/22 11:53:15;;;;;;;1.87;1.60;;;21.90;98.00;;;;;;5071503;28;20539;-71
2021/06/22 11:55:51;;;;;;;1.83;1.60;;;21.80;98.00;;;;;;5069178;28;20490;-71
2021/06/22 11:58:29;;;;;;;2.10;1.70;;;21.60;98.00;;;;;;5071305;28;20958;-71
2021/06/22 12:00:58;;;;;;;1.60;1.50;;;21.50;98.00;;;;;;5071454;28;20452;-71
2021/06/22 12:03:33;;;;;;;1.70;1.63;;;21.60;98.00;;;;;;5067952;28;20491;-71
2021/06/22 12:06:09;;;;;;;1.40;1.30;;;21.60;98.00;;;;;;5071608;28;20943;-71
2021/06/22 12:08:49;;;;;;;1.70;1.60;;;21.40;98.00;;;;;;5069262;28;21091;-71
2021/06/22 12:11:29;;;;;;;1.27;1.27;;;21.40;98.00;;;;;;5071391;28;20484;-72
2021/06/22 12:13:59;;;;;;;2.73;1.90;;;21.40;98.00;;;;;;5066998;28;20456;-72
2021/06/22 12:16:28;;;;;;;1.83;1.77;;;21.40;98.00;;;;;;5071661;28;20457;-71
2021/06/22 12:18:58;;;;;;;1.50;1.40;;;21.50;98.00;;;;;;5069604;28;20461;-71
2021/06/22 12:21:26;;;;;;;1.30;1.30;;;21.50;98.00;;;;;;5071468;28;20453;-71
2021/06/22 12:24:00;;;;;;;1.30;1.30;;;21.40;98.00;;;;;;5068605;28;20488;-71
2021/06/22 12:26:27;;;;;;;1.93;1.43;;;21.50;98.00;;;;;;5071153;28;20461;-71
2021/06/22 12:28:54;;;;;;;1.50;1.47;;;21.50;98.00;;;;;;5068834;28;20465;-71
2021/06/22 12:31:24;;;;;;;3.43;1.40;;;21.70;98.00;;;;;;5070989;28;20503;-71
2021/06/22 12:33:51;;;;;;;1.20;1.13;;;21.70;98.00;;;;;;5068001;28;20483;-71
2021/06/22 12:36:22;;;;;;;1.50;1.50;;;21.70;98.00;;;;;;5070938;28;20468;-70
2021/06/22 12:38:56;;;;;;;1.47;1.30;;;21.60;98.00;;;;;;5068900;28;20574;-71
2021/06/22 12:41:29;;;;;;;1.40;1.23;;;21.40;98.00;;;;;;5071095;28;20456;-71
2021/06/22 12:43:56;;;;;;;1.40;1.40;;;21.20;98.00;;;;;;5068461;28;20495;-71
2021/06/22 12:46:28;;;;;;;1.97;1.40;;;21.10;98.00;;;;;;5070257;28;20534;-71
2021/06/22 12:48:57;;;;;;;1.90;1.37;;;21.00;98.00;;;;;;5067900;28;20480;-71
2021/06/22 12:51:25;;;;;;;1.70;1.50;;;21.20;98.00;;;;;;5070204;28;20460;-71
2021/06/22 12:53:53;;;;;;;1.40;1.30;;;21.10;98.00;;;;;;5068562;28;20525;-71
2021/06/22 12:56:23;;;;;;;1.53;1.27;;;20.90;98.00;;;;;;5070158;28;20479;-71
2021/06/22 12:58:55;;;;;;;1.23;1.13;;;20.80;98.00;;;;;;5068349;28;20821;-71
2021/06/22 13:01:33;;;;;;;1.40;1.33;;;20.80;98.00;;;;;;5073794;28;20449;-71